Rechercher aéroport 
image banner adimage banner adimage banner ad
image banner ad

O16 - Garberville

Situé à Garberville, United States

ICAO - O16, IATA -

Données fournies par Airmate  

Information générale

Coordonnées: N40°5'8" W123°48'51"
Élévation : 550 feet MSL.
Variation magnétique : 17° East
Voir autres Aéroports à California

Données opérationnelles

Special qualification required
Heure actuelle UTC:
Heure actuelle locale:
Météo à : KFOT - Rohnerville ( 59 km )
METAR: KFOT 251115Z AUTO 00000KT 10SM OVC003 12/11 A2995 RMK AO1
Voir NOTAMs / SUP AIP / TFR affectant cet aéroport [VIEW]
Fréquences de communication: [VIEW]

Pistes:

Identifiant RWYQFULongueur (ft)Largeur (ft)SurfaceLDA (ft)
18278375ASPH
36278375ASPH

Coordonnées de l'aéroport

Adresse: Garberville United States

Vue satellite de O16